createdAt,value
2023-05-24T00:00:22.450Z,13.87
2023-05-24T00:02:52.224Z,13.76
2023-05-24T00:05:22.412Z,13.67
2023-05-24T00:07:52.118Z,13.55
2023-05-24T00:10:24.483Z,13.46
2023-05-24T00:12:54.372Z,13.39
2023-05-24T00:15:24.313Z,13.33
2023-05-24T00:17:54.056Z,13.26
2023-05-24T00:20:26.304Z,13.23
2023-05-24T00:22:56.063Z,13.14
2023-05-24T00:25:28.517Z,13.13
2023-05-24T00:27:58.169Z,13.10
2023-05-24T00:30:27.913Z,13.06
2023-05-24T00:32:57.779Z,13.02
2023-05-24T00:35:27.505Z,12.95
2023-05-24T00:37:57.609Z,12.82
2023-05-24T00:40:30.025Z,12.76
2023-05-24T00:42:59.693Z,12.69
2023-05-24T00:45:30.299Z,12.62
2023-05-24T00:48:02.632Z,12.57
2023-05-24T00:50:32.374Z,12.52
2023-05-24T00:53:05.157Z,12.46
2023-05-24T00:55:37.996Z,12.43
2023-05-24T00:58:08.039Z,12.41
2023-05-24T01:00:41.052Z,12.35
2023-05-24T01:03:14.145Z,12.32
2023-05-24T01:05:43.876Z,12.19
2023-05-24T01:08:25.056Z,12.12
2023-05-24T01:11:04.376Z,12.01
2023-05-24T01:13:44.993Z,11.86
2023-05-24T01:16:21.486Z,11.82
2023-05-24T01:18:55.554Z,11.73
2023-05-24T01:21:40.193Z,11.67
2023-05-24T01:24:22.933Z,11.65
2023-05-24T01:27:09.550Z,11.61
2023-05-24T01:29:39.443Z,11.56
2023-05-24T01:32:10.141Z,11.49
2023-05-24T01:34:39.874Z,11.45
2023-05-24T01:37:09.557Z,11.41
2023-05-24T01:39:39.478Z,11.36
2023-05-24T01:42:25.085Z,11.31
2023-05-24T01:45:02.707Z,11.25
2023-05-24T01:47:45.040Z,11.24
2023-05-24T01:50:22.482Z,11.22
2023-05-24T01:52:54.604Z,11.11
2023-05-24T01:55:25.607Z,11.05
2023-05-24T01:58:03.614Z,11.01
2023-05-24T02:00:35.839Z,10.90
2023-05-24T02:03:06.200Z,10.78
2023-05-24T02:05:36.264Z,10.71
2023-05-24T02:08:05.928Z,10.61
2023-05-24T02:10:38.528Z,10.40
2023-05-24T02:13:11.260Z,10.21
2023-05-24T02:15:42.147Z,10.08
2023-05-24T02:18:13.230Z,9.95
2023-05-24T02:20:43.956Z,9.90
2023-05-24T02:23:13.760Z,9.89
2023-05-24T02:25:43.376Z,9.84
2023-05-24T02:28:16.231Z,9.79
2023-05-24T02:30:46.221Z,9.72
2023-05-24T02:33:15.928Z,9.73
2023-05-24T02:35:45.684Z,9.68
2023-05-24T02:38:15.806Z,9.63
2023-05-24T02:40:45.548Z,9.61
2023-05-24T02:43:17.850Z,9.59
2023-05-24T02:45:47.570Z,9.57
2023-05-24T02:48:17.388Z,9.56
2023-05-24T02:53:22.441Z,9.49
2023-05-24T02:55:52.428Z,9.48
2023-05-24T02:58:24.648Z,9.50
2023-05-24T03:00:54.431Z,9.46
2023-05-24T03:03:24.860Z,9.46
2023-05-24T03:05:54.665Z,9.46
2023-05-24T03:08:24.354Z,9.48
2023-05-24T03:10:54.343Z,9.45
2023-05-24T03:13:26.917Z,9.42
2023-05-24T03:15:56.795Z,9.42
2023-05-24T03:18:26.518Z,9.39
2023-05-24T03:20:56.155Z,9.39
2023-05-24T03:23:25.798Z,9.41
2023-05-24T03:25:55.429Z,9.40
2023-05-24T03:28:27.757Z,9.39
2023-05-24T03:30:57.493Z,9.41
2023-05-24T03:33:27.389Z,9.40
2023-05-24T03:35:57.475Z,9.39
2023-05-24T03:38:27.164Z,9.39
2023-05-24T03:40:56.874Z,9.37
2023-05-24T03:43:29.294Z,9.41
2023-05-24T03:45:59.205Z,9.39
2023-05-24T03:48:28.849Z,9.42
2023-05-24T03:50:58.554Z,9.44
2023-05-24T03:53:28.562Z,9.45
2023-05-24T03:55:59.639Z,9.45
2023-05-24T03:58:31.891Z,9.48
2023-05-24T04:01:02.101Z,9.45
2023-05-24T04:03:34.464Z,9.46
2023-05-24T04:06:04.288Z,9.46
2023-05-24T04:08:34.407Z,9.44
2023-05-24T04:11:04.329Z,9.46
2023-05-24T04:13:36.827Z,9.48
2023-05-24T04:16:10.597Z,9.51
2023-05-24T04:18:40.348Z,9.51
2023-05-24T04:21:10.061Z,9.53
2023-05-24T04:23:39.748Z,9.56
2023-05-24T04:26:10.371Z,9.58
2023-05-24T04:28:42.857Z,9.62
2023-05-24T04:31:12.579Z,9.62
2023-05-24T04:33:42.585Z,9.62
2023-05-24T04:36:13.892Z,9.67
2023-05-24T04:38:46.068Z,9.71
2023-05-24T04:41:16.273Z,9.70
2023-05-24T04:43:48.598Z,9.79
2023-05-24T04:46:18.574Z,9.81
2023-05-24T04:48:48.474Z,9.84
2023-05-24T04:51:18.276Z,9.91
2023-05-24T04:53:48.101Z,9.92
2023-05-24T04:56:17.933Z,9.97
2023-05-24T04:58:51.196Z,9.94
2023-05-24T05:01:20.903Z,9.92
2023-05-24T05:03:50.884Z,9.88
2023-05-24T05:06:20.534Z,9.84
2023-05-24T05:08:50.298Z,9.85
2023-05-24T05:11:20.808Z,9.83
2023-05-24T05:13:54.342Z,9.82
2023-05-24T05:16:25.479Z,9.85
2023-05-24T05:18:55.177Z,9.88
2023-05-24T05:21:26.300Z,9.90
2023-05-24T05:23:56.039Z,9.92
2023-05-24T05:26:27.202Z,9.87
2023-05-24T05:29:00.377Z,9.88
2023-05-24T05:31:29.986Z,9.94
2023-05-24T05:33:59.718Z,9.94
2023-05-24T05:36:29.343Z,9.96
2023-05-24T05:38:59.011Z,9.93
2023-05-24T05:41:28.640Z,9.92
2023-05-24T05:44:01.529Z,10.00
2023-05-24T05:46:31.349Z,10.14
2023-05-24T05:49:01.058Z,10.32
2023-05-24T05:51:30.755Z,10.41
2023-05-24T05:54:00.433Z,10.33
2023-05-24T05:56:30.219Z,10.28
2023-05-24T05:59:02.463Z,10.36
2023-05-24T06:01:32.205Z,10.28
2023-05-24T06:04:01.881Z,10.26
2023-05-24T06:06:31.728Z,10.23
2023-05-24T06:09:01.554Z,10.12
2023-05-24T06:11:31.199Z,10.21
2023-05-24T06:14:03.760Z,10.25
2023-05-24T06:16:36.930Z,10.34
2023-05-24T06:19:06.821Z,10.40
2023-05-24T06:21:37.886Z,10.50
2023-05-24T06:24:10.064Z,10.67
2023-05-24T06:26:39.899Z,10.69
2023-05-24T06:29:12.341Z,10.66
2023-05-24T06:31:42.514Z,10.70
2023-05-24T06:34:12.317Z,10.74
2023-05-24T06:36:44.227Z,10.76
2023-05-24T06:39:13.925Z,10.84
2023-05-24T06:41:44.695Z,11.01
2023-05-24T06:44:16.968Z,11.06
2023-05-24T06:46:47.684Z,11.28
2023-05-24T06:49:17.456Z,11.33
2023-05-24T06:51:47.248Z,11.41
2023-05-24T06:54:16.902Z,11.55
2023-05-24T06:56:46.665Z,11.91
2023-05-24T06:59:18.874Z,11.86
2023-05-24T07:01:51.849Z,11.98
2023-05-24T07:04:21.734Z,12.03
2023-05-24T07:06:52.137Z,12.23
2023-05-24T07:09:21.911Z,12.09
2023-05-24T07:11:51.616Z,11.87
2023-05-24T07:14:26.181Z,11.88
2023-05-24T07:16:57.752Z,11.67
2023-05-24T07:19:29.878Z,11.74
2023-05-24T07:22:00.200Z,11.93
2023-05-24T07:24:29.827Z,12.11
2023-05-24T07:26:59.616Z,12.14
2023-05-24T07:29:32.003Z,12.28
2023-05-24T07:32:02.015Z,12.15
2023-05-24T07:34:32.350Z,12.05
2023-05-24T07:37:02.136Z,12.11
2023-05-24T07:39:32.432Z,12.22
2023-05-24T07:42:02.297Z,12.40
2023-05-24T07:44:34.545Z,12.29
2023-05-24T07:47:05.391Z,12.47
2023-05-24T07:49:35.030Z,12.62
2023-05-24T07:52:04.690Z,13.14
2023-05-24T07:54:34.522Z,13.39
2023-05-24T07:57:06.642Z,13.22
2023-05-24T07:59:40.238Z,13.44
2023-05-24T08:02:11.812Z,13.68
2023-05-24T08:04:42.183Z,13.52
2023-05-24T08:07:12.107Z,13.29
2023-05-24T08:09:42.474Z,13.40
2023-05-24T08:12:15.543Z,13.83
2023-05-24T08:14:51.349Z,14.34
2023-05-24T08:17:20.989Z,14.47
2023-05-24T08:19:50.611Z,14.43
2023-05-24T08:22:20.263Z,14.92
2023-05-24T08:24:49.916Z,15.10
2023-05-24T08:27:19.574Z,15.33
2023-05-24T08:29:53.012Z,15.21
2023-05-24T08:32:23.744Z,15.48
2023-05-24T08:35:00.317Z,15.66
2023-05-24T08:37:33.575Z,15.48
2023-05-24T08:40:04.504Z,15.37
2023-05-24T08:42:35.015Z,15.86
2023-05-24T08:45:15.265Z,16.18
2023-05-24T08:47:45.316Z,16.34
2023-05-24T08:50:16.369Z,16.35
2023-05-24T08:52:47.261Z,16.58
2023-05-24T08:55:18.323Z,16.29
2023-05-24T08:57:48.685Z,17.10
2023-05-24T09:00:22.200Z,17.26
2023-05-24T09:02:52.668Z,16.93
2023-05-24T09:05:23.637Z,16.93
2023-05-24T09:07:53.532Z,17.28
2023-05-24T09:10:24.314Z,17.29
2023-05-24T09:12:59.078Z,17.80
2023-05-24T09:15:34.153Z,17.31
2023-05-24T09:18:03.897Z,16.75
2023-05-24T09:20:33.678Z,17.51
2023-05-24T09:23:06.143Z,17.24
2023-05-24T09:25:36.065Z,17.68
2023-05-24T09:28:10.083Z,18.08
2023-05-24T09:30:42.503Z,17.93
2023-05-24T09:33:12.992Z,17.26
2023-05-24T09:35:46.546Z,17.39
2023-05-24T09:38:21.258Z,16.93
2023-05-24T09:40:50.913Z,17.86
2023-05-24T09:43:20.575Z,18.73
2023-05-24T09:45:54.344Z,17.57
2023-05-24T09:48:24.013Z,17.77
2023-05-24T09:51:03.684Z,17.93
2023-05-24T09:53:34.135Z,18.15
2023-05-24T09:56:07.280Z,19.43
2023-05-24T09:58:37.199Z,20.04
2023-05-24T10:01:11.305Z,19.34
2023-05-24T10:03:41.397Z,18.98
2023-05-24T10:06:14.907Z,17.93
2023-05-24T10:08:45.219Z,17.95
2023-05-24T10:11:14.982Z,17.32
2023-05-24T10:13:45.279Z,17.59
2023-05-24T10:16:18.113Z,17.90
2023-05-24T10:18:48.128Z,18.55
2023-05-24T10:21:19.195Z,18.46
2023-05-24T10:23:54.756Z,17.52
2023-05-24T10:26:27.248Z,16.99
2023-05-24T10:29:03.772Z,17.19
2023-05-24T10:31:38.072Z,16.62
2023-05-24T10:34:10.104Z,16.64
2023-05-24T10:36:41.994Z,17.05
2023-05-24T10:39:15.359Z,17.09
2023-05-24T10:41:45.567Z,16.90
2023-05-24T10:44:17.565Z,16.91
2023-05-24T10:47:10.128Z,16.64
2023-05-24T10:49:44.660Z,16.28
2023-05-24T10:52:15.711Z,16.12
2023-05-24T10:55:05.733Z,16.01
2023-05-24T10:57:35.496Z,15.95
2023-05-24T11:03:07.016Z,16.50
2023-05-24T11:05:53.421Z,17.03
2023-05-24T11:08:27.767Z,17.19
2023-05-24T11:13:44.299Z,17.09
2023-05-24T11:16:39.387Z,17.49
2023-05-24T11:19:20.742Z,17.51
2023-05-24T11:21:51.811Z,17.47
2023-05-24T11:24:22.477Z,17.63
2023-05-24T11:26:54.369Z,17.71
2023-05-24T11:29:24.366Z,17.22
2023-05-24T11:31:55.355Z,17.00
2023-05-24T11:34:27.909Z,17.52
2023-05-24T11:36:57.745Z,17.27
2023-05-24T11:39:27.790Z,17.14
2023-05-24T11:41:57.506Z,16.71
2023-05-24T11:44:27.440Z,17.23
2023-05-24T11:47:02.022Z,17.59
2023-05-24T11:49:36.762Z,17.30
2023-05-24T11:52:07.714Z,17.36
2023-05-24T11:54:38.987Z,16.84
2023-05-24T11:57:09.225Z,17.23
2023-05-24T11:59:38.978Z,17.91
2023-05-24T12:02:09.556Z,18.32
2023-05-24T12:04:41.913Z,17.94
2023-05-24T12:07:14.669Z,18.01
2023-05-24T12:09:44.450Z,17.61
2023-05-24T12:12:14.280Z,17.17
2023-05-24T12:14:44.077Z,17.16
2023-05-24T12:17:19.462Z,17.45
2023-05-24T12:19:52.975Z,17.63
2023-05-24T12:22:22.744Z,17.40
2023-05-24T12:24:52.812Z,17.59
2023-05-24T12:27:25.063Z,18.13
2023-05-24T12:29:55.402Z,18.45
2023-05-24T12:32:25.333Z,18.28
2023-05-24T12:34:57.858Z,18.14
2023-05-24T12:37:28.042Z,18.48
2023-05-24T12:39:57.685Z,18.01
2023-05-24T12:42:29.361Z,17.75
2023-05-24T12:44:59.031Z,17.68
2023-05-24T12:47:28.918Z,17.53
2023-05-24T12:50:01.294Z,17.70
2023-05-24T12:52:33.348Z,17.46
2023-05-24T12:55:03.036Z,17.37
2023-05-24T12:57:35.061Z,17.51
2023-05-24T13:00:05.761Z,17.63
2023-05-24T13:02:36.983Z,17.84
2023-05-24T13:05:11.967Z,17.49
2023-05-24T13:07:42.987Z,17.25
2023-05-24T13:10:13.102Z,17.28
2023-05-24T13:12:42.817Z,17.36
2023-05-24T13:15:14.125Z,17.35
2023-05-24T13:17:44.086Z,17.29
2023-05-24T13:20:18.998Z,17.27
2023-05-24T13:22:48.971Z,17.18
2023-05-24T13:25:18.762Z,17.27
2023-05-24T13:27:48.646Z,17.33
2023-05-24T13:30:19.270Z,17.36
2023-05-24T13:32:49.044Z,16.89
2023-05-24T13:35:21.665Z,16.50
2023-05-24T13:37:52.881Z,17.01
2023-05-24T13:40:26.314Z,16.74
2023-05-24T13:42:57.813Z,17.18
2023-05-24T13:45:27.793Z,17.11
2023-05-24T13:48:04.034Z,17.43
2023-05-24T13:50:37.671Z,17.86
2023-05-24T13:53:08.630Z,17.87
2023-05-24T13:55:39.273Z,18.04
2023-05-24T13:58:10.226Z,17.52
2023-05-24T14:00:39.963Z,17.65
2023-05-24T14:03:10.022Z,17.49
2023-05-24T14:05:43.576Z,17.40
2023-05-24T14:08:13.754Z,17.18
2023-05-24T14:10:43.547Z,17.59
2023-05-24T14:13:36.837Z,17.39
2023-05-24T14:16:03.156Z,17.95
2023-05-24T14:18:32.947Z,17.96
2023-05-24T14:21:07.711Z,17.49
2023-05-24T14:23:39.485Z,17.22
2023-05-24T14:26:09.153Z,17.46
2023-05-24T14:28:38.764Z,18.10
2023-05-24T14:31:08.829Z,17.98
2023-05-24T14:33:38.663Z,17.87
2023-05-24T14:36:12.108Z,17.13
2023-05-24T14:38:41.768Z,16.61
2023-05-24T14:41:13.437Z,17.07
2023-05-24T14:43:43.169Z,16.80
2023-05-24T14:46:12.891Z,16.50
2023-05-24T14:48:42.517Z,16.52
2023-05-24T14:51:14.775Z,16.70
2023-05-24T14:53:45.335Z,16.50
2023-05-24T14:56:16.436Z,16.10
2023-05-24T14:58:46.196Z,16.72
2023-05-24T15:01:16.257Z,17.15
2023-05-24T15:03:46.295Z,16.70
2023-05-24T15:06:18.868Z,16.17
2023-05-24T15:08:50.137Z,16.07
2023-05-24T15:11:20.399Z,16.43
2023-05-24T15:13:49.988Z,16.63
2023-05-24T15:16:19.626Z,16.63
2023-05-24T15:18:49.304Z,16.28
2023-05-24T15:21:21.803Z,15.19
2023-05-24T15:23:51.455Z,15.46
2023-05-24T15:26:21.288Z,15.16
2023-05-24T15:28:51.341Z,15.60
2023-05-24T15:31:21.398Z,15.71
2023-05-24T15:33:51.141Z,15.89
2023-05-24T15:36:25.370Z,16.37
2023-05-24T15:38:55.634Z,16.00
2023-05-24T15:41:25.650Z,16.18
2023-05-24T15:43:55.294Z,16.17
2023-05-24T15:46:27.234Z,16.23
2023-05-24T15:48:56.958Z,15.50
2023-05-24T15:51:58.101Z,15.19
2023-05-24T15:54:19.271Z,15.25
2023-05-24T15:56:52.019Z,15.26
2023-05-24T15:59:21.747Z,15.28
2023-05-24T16:01:51.751Z,15.37
2023-05-24T16:04:21.854Z,15.61
2023-05-24T16:06:54.533Z,15.28
2023-05-24T16:09:24.458Z,15.20
2023-05-24T16:11:54.362Z,15.23
2023-05-24T16:14:24.053Z,15.31
2023-05-24T16:16:58.538Z,15.64
2023-05-24T16:19:30.346Z,15.49
2023-05-24T16:22:02.853Z,15.12
2023-05-24T16:24:32.529Z,15.47
2023-05-24T16:27:02.522Z,15.08
2023-05-24T16:29:32.266Z,15.26
2023-05-24T16:32:01.979Z,15.04
2023-05-24T16:34:41.379Z,15.37
2023-05-24T16:37:17.582Z,15.35
2023-05-24T16:39:47.212Z,15.21
2023-05-24T16:42:16.931Z,15.18
2023-05-24T16:44:47.627Z,15.28
2023-05-24T16:47:18.863Z,15.25
2023-05-24T16:49:48.529Z,15.26
2023-05-24T16:52:21.106Z,15.08
2023-05-24T16:54:50.771Z,15.04
2023-05-24T16:57:20.679Z,15.14
2023-05-24T16:59:50.998Z,15.08
2023-05-24T17:02:22.917Z,14.86
2023-05-24T17:04:52.681Z,14.58
2023-05-24T17:07:25.026Z,14.38
2023-05-24T17:09:54.914Z,14.50
2023-05-24T17:12:24.667Z,14.59
2023-05-24T17:14:54.354Z,14.59
2023-05-24T17:17:24.026Z,14.39
2023-05-24T17:19:53.758Z,14.31
2023-05-24T17:22:27.639Z,14.41
2023-05-24T17:24:57.757Z,14.31
2023-05-24T17:27:27.529Z,14.15
2023-05-24T17:29:57.162Z,14.11
2023-05-24T17:32:27.002Z,13.99
2023-05-24T17:34:57.144Z,13.90
2023-05-24T17:37:29.671Z,13.91
2023-05-24T17:39:59.377Z,13.93
2023-05-24T17:42:29.275Z,13.94
2023-05-24T17:45:00.774Z,13.90
2023-05-24T17:47:30.536Z,13.83
2023-05-24T17:50:00.317Z,13.85
2023-05-24T17:52:32.678Z,13.80
2023-05-24T17:55:02.984Z,13.77
2023-05-24T17:57:34.368Z,13.71
2023-05-24T18:00:06.182Z,13.50
2023-05-24T18:02:36.314Z,13.47
2023-05-24T18:05:06.310Z,13.40
2023-05-24T18:07:38.777Z,13.20
2023-05-24T18:10:09.991Z,13.20
2023-05-24T18:12:39.916Z,13.16
2023-05-24T18:15:10.742Z,13.12
2023-05-24T18:17:41.618Z,13.08
2023-05-24T18:20:12.895Z,12.97
2023-05-24T18:22:45.204Z,12.92
2023-05-24T18:25:15.019Z,12.83
2023-05-24T18:27:44.650Z,12.76
2023-05-24T18:30:15.704Z,12.69
2023-05-24T18:33:02.800Z,12.58
2023-05-24T18:35:40.141Z,12.51
2023-05-24T18:38:12.609Z,12.39
2023-05-24T18:40:44.293Z,12.33
2023-05-24T18:43:14.246Z,12.28
2023-05-24T18:45:44.326Z,12.20
2023-05-24T18:48:17.694Z,12.12
2023-05-24T18:50:51.027Z,12.05
2023-05-24T18:53:23.329Z,11.98
2023-05-24T18:55:53.021Z,11.91
2023-05-24T18:58:22.830Z,11.80
2023-05-24T19:00:53.561Z,11.74
2023-05-24T19:16:23.198Z,11.39
2023-05-24T19:18:52.975Z,11.36
2023-05-24T19:21:24.287Z,11.26
2023-05-24T19:23:56.537Z,11.14
2023-05-24T19:26:28.404Z,11.07
2023-05-24T19:28:58.443Z,10.99
2023-05-24T19:31:29.703Z,10.97
2023-05-24T19:34:01.723Z,10.87
2023-05-24T19:36:33.088Z,10.75
2023-05-24T19:39:06.321Z,10.64
2023-05-24T19:41:36.082Z,10.54
2023-05-24T19:44:05.693Z,10.44
2023-05-24T19:46:35.494Z,10.33
2023-05-24T19:49:05.737Z,10.28
2023-05-24T19:51:35.640Z,10.19
2023-05-24T19:54:09.429Z,10.15
2023-05-24T19:56:39.137Z,10.20
2023-05-24T19:59:08.892Z,10.09
2023-05-24T20:01:38.774Z,9.94
2023-05-24T20:04:08.641Z,9.87
2023-05-24T20:06:38.870Z,9.79
2023-05-24T20:09:11.256Z,9.74
2023-05-24T20:11:43.903Z,9.61
2023-05-24T20:14:13.689Z,9.64
2023-05-24T20:16:43.671Z,9.52
2023-05-24T20:19:13.584Z,9.49
2023-05-24T20:21:43.265Z,9.43
2023-05-24T20:24:15.530Z,9.35
2023-05-24T20:26:45.207Z,9.30
2023-05-24T20:29:17.106Z,9.21
2023-05-24T20:31:47.230Z,9.15
2023-05-24T20:34:17.031Z,9.11
2023-05-24T20:36:47.125Z,9.06
2023-05-24T20:39:19.496Z,9.07
2023-05-24T20:41:49.270Z,9.04
2023-05-24T20:44:18.884Z,8.96
2023-05-24T20:46:48.613Z,8.91
2023-05-24T20:49:18.282Z,8.89
2023-05-24T20:51:48.323Z,8.82
2023-05-24T20:54:20.705Z,8.80
2023-05-24T20:56:50.409Z,8.72
2023-05-24T20:59:20.116Z,8.65
2023-05-24T21:01:50.243Z,8.59
2023-05-24T21:04:20.012Z,8.58
2023-05-24T21:06:49.716Z,8.51
2023-05-24T21:09:22.706Z,8.46
2023-05-24T21:11:52.588Z,8.44
2023-05-24T21:14:22.243Z,8.41
2023-05-24T21:16:52.155Z,8.49
2023-05-24T21:19:22.208Z,8.47
2023-05-24T21:21:51.790Z,8.42
2023-05-24T21:24:24.333Z,8.39
2023-05-24T21:26:53.976Z,8.30
2023-05-24T21:29:23.593Z,8.27
2023-05-24T21:31:53.301Z,8.27
2023-05-24T21:34:23.240Z,8.30
2023-05-24T21:36:52.917Z,8.31
2023-05-24T21:39:25.895Z,8.27
2023-05-24T21:41:56.801Z,8.27
2023-05-24T21:44:26.470Z,8.31
2023-05-24T21:46:56.347Z,8.34
2023-05-24T21:49:26.259Z,8.41
2023-05-24T21:51:56.081Z,8.40
2023-05-24T21:54:28.690Z,8.34
2023-05-24T21:56:58.416Z,8.30
2023-05-24T21:59:28.151Z,8.28
2023-05-24T22:02:00.127Z,8.25
2023-05-24T22:04:29.817Z,8.33
2023-05-24T22:06:59.402Z,8.40
2023-05-24T22:09:31.709Z,8.42
2023-05-24T22:12:01.904Z,8.43
2023-05-24T22:14:31.952Z,8.45
2023-05-24T22:17:03.463Z,8.44
2023-05-24T22:22:07.066Z,8.48
2023-05-24T22:24:39.287Z,8.48
2023-05-24T22:27:09.854Z,8.44
2023-05-24T22:29:39.772Z,8.33
2023-05-24T22:32:09.541Z,8.22
2023-05-24T22:34:39.523Z,8.14
2023-05-24T22:37:10.425Z,8.07
2023-05-24T22:39:42.714Z,8.03
2023-05-24T22:42:12.380Z,7.96
2023-05-24T22:44:41.998Z,7.91
2023-05-24T22:47:14.452Z,7.86
2023-05-24T22:49:46.593Z,7.86
2023-05-24T22:52:17.328Z,7.78
2023-05-24T22:54:49.765Z,7.69
2023-05-24T22:57:21.824Z,7.64
2023-05-24T22:59:51.682Z,7.63
2023-05-24T23:02:21.500Z,7.55
2023-05-24T23:04:51.167Z,7.50
2023-05-24T23:07:21.932Z,7.48
2023-05-24T23:09:54.929Z,7.46
2023-05-24T23:12:24.611Z,7.43
2023-05-24T23:14:54.349Z,7.45
2023-05-24T23:17:24.021Z,7.49
2023-05-24T23:19:53.818Z,7.45
2023-05-24T23:22:24.057Z,7.41
2023-05-24T23:24:58.498Z,7.36
2023-05-24T23:27:28.167Z,7.33
2023-05-24T23:29:58.969Z,7.31
2023-05-24T23:32:28.795Z,7.29
2023-05-24T23:34:58.477Z,7.25
2023-05-24T23:37:28.413Z,7.18
2023-05-24T23:40:03.410Z,7.16
2023-05-24T23:42:34.673Z,7.15
2023-05-24T23:45:04.680Z,7.20
2023-05-24T23:47:34.438Z,7.16
2023-05-24T23:50:04.207Z,7.12
2023-05-24T23:52:35.514Z,7.09
2023-05-24T23:55:08.736Z,7.03
2023-05-24T23:57:42.043Z,6.99
